createdAt,value
2017-09-20T00:00:14.480Z,14.53
2017-09-20T00:02:42.579Z,9.73
2017-09-20T00:05:10.727Z,8.83
2017-09-20T00:07:40.035Z,11.37
2017-09-20T00:10:08.162Z,14.73
2017-09-20T00:12:36.300Z,11.70
2017-09-20T00:15:05.129Z,10.10
2017-09-20T00:17:33.267Z,9.13
2017-09-20T00:20:02.189Z,12.93
2017-09-20T00:22:30.413Z,11.67
2017-09-20T00:24:58.662Z,9.93
2017-09-20T00:27:26.792Z,11.50
2017-09-20T00:29:55.706Z,10.40
2017-09-20T00:32:23.827Z,11.10
2017-09-20T00:34:51.968Z,12.70
2017-09-20T00:37:20.099Z,13.23
2017-09-20T00:39:49.009Z,12.10
2017-09-20T00:42:17.128Z,11.77
2017-09-20T00:44:45.269Z,16.33
2017-09-20T00:47:13.396Z,10.23
2017-09-20T00:49:42.289Z,11.60
2017-09-20T00:52:11.202Z,14.33
2017-09-20T00:54:39.323Z,11.80
2017-09-20T00:57:07.472Z,10.43
2017-09-20T00:59:35.597Z,12.87
2017-09-20T01:02:04.488Z,12.97
2017-09-20T01:04:33.392Z,11.77
2017-09-20T01:07:01.531Z,14.63
2017-09-20T01:09:29.780Z,13.80
2017-09-20T01:11:57.904Z,13.70
2017-09-20T01:14:26.048Z,13.40
2017-09-20T01:16:54.175Z,14.63
2017-09-20T01:19:22.316Z,14.97
2017-09-20T01:22:02.936Z,13.27
2017-09-20T01:24:31.080Z,15.40
2017-09-20T01:26:59.213Z,13.23
2017-09-20T01:29:28.099Z,14.87
2017-09-20T01:31:57.015Z,17.70
2017-09-20T01:34:25.141Z,21.93
2017-09-20T01:36:53.281Z,12.60
2017-09-20T01:39:21.440Z,17.83
2017-09-20T01:41:49.600Z,15.90
2017-09-20T01:44:18.496Z,13.33
2017-09-20T01:46:46.633Z,14.43
2017-09-20T01:49:14.772Z,14.83
2017-09-20T01:51:42.913Z,20.30
2017-09-20T01:54:11.069Z,14.93
2017-09-20T01:56:39.959Z,11.57
2017-09-20T01:59:08.864Z,16.70
2017-09-20T02:01:37.009Z,16.20
2017-09-20T02:04:05.186Z,16.03
2017-09-20T02:06:33.311Z,15.23
2017-09-20T02:09:01.482Z,17.13
2017-09-20T02:11:29.623Z,18.53
2017-09-20T02:13:58.549Z,17.40
2017-09-20T02:16:26.685Z,17.97
2017-09-20T02:18:54.844Z,16.23
2017-09-20T02:21:23.751Z,18.07
2017-09-20T02:23:52.659Z,15.77
2017-09-20T02:26:20.792Z,18.53
2017-09-20T02:28:49.704Z,16.77
2017-09-20T02:31:17.832Z,24.23
2017-09-20T02:33:45.989Z,20.00
2017-09-20T02:36:14.161Z,17.23
2017-09-20T02:38:42.301Z,22.63
2017-09-20T02:41:10.460Z,18.30
2017-09-20T02:43:39.344Z,17.60
2017-09-20T02:46:08.270Z,22.30
2017-09-20T02:48:36.416Z,16.57
2017-09-20T02:51:04.556Z,19.90
2017-09-20T02:53:33.485Z,20.13
2017-09-20T02:56:02.364Z,20.67
2017-09-20T02:58:30.489Z,23.07
2017-09-20T03:00:58.692Z,21.87
2017-09-20T03:03:27.581Z,19.77
2017-09-20T03:05:56.516Z,26.00
2017-09-20T03:08:24.655Z,22.87
2017-09-20T03:10:53.567Z,20.97
2017-09-20T03:13:21.718Z,29.60
2017-09-20T03:15:50.624Z,23.23
2017-09-20T03:18:18.772Z,27.77
2017-09-20T03:20:47.701Z,26.13
2017-09-20T03:23:15.841Z,22.70
2017-09-20T03:25:44.760Z,25.60
2017-09-20T03:28:12.892Z,21.73
2017-09-20T03:30:41.053Z,30.13
2017-09-20T03:33:09.220Z,31.67
2017-09-20T03:35:37.381Z,24.03
2017-09-20T03:38:05.500Z,22.47
2017-09-20T03:40:33.661Z,24.70
2017-09-20T03:43:02.573Z,31.47
2017-09-20T03:45:30.717Z,29.30
2017-09-20T03:47:59.631Z,23.73
2017-09-20T03:50:27.777Z,19.97
2017-09-20T03:52:55.907Z,22.27
2017-09-20T03:55:24.057Z,27.97
2017-09-20T03:57:52.195Z,21.40
2017-09-20T04:00:21.868Z,23.27
2017-09-20T04:02:49.989Z,26.93
2017-09-20T04:05:18.915Z,24.73
2017-09-20T04:07:47.041Z,25.50
2017-09-20T04:10:15.170Z,25.33
2017-09-20T04:12:44.097Z,21.83
2017-09-20T04:15:12.228Z,25.13
2017-09-20T04:17:40.395Z,24.67
2017-09-20T04:20:08.531Z,26.43
2017-09-20T04:22:37.455Z,29.07
2017-09-20T04:25:05.587Z,29.47
2017-09-20T04:27:34.508Z,26.80
2017-09-20T04:30:02.650Z,25.17
2017-09-20T04:32:31.547Z,28.90
2017-09-20T04:35:00.472Z,31.00
2017-09-20T04:37:28.607Z,27.23
2017-09-20T04:39:57.529Z,33.80
2017-09-20T04:42:25.659Z,31.77
2017-09-20T04:44:53.819Z,29.77
2017-09-20T04:47:21.932Z,36.63
2017-09-20T04:49:50.097Z,27.17
2017-09-20T04:52:18.984Z,36.50
2017-09-20T04:54:47.892Z,34.23
2017-09-20T04:57:16.035Z,26.83
2017-09-20T04:59:44.944Z,26.83
2017-09-20T05:02:13.873Z,43.17
2017-09-20T05:04:42.001Z,29.70
2017-09-20T05:07:10.904Z,28.93
2017-09-20T05:09:39.035Z,30.90
2017-09-20T05:12:07.197Z,30.60
2017-09-20T05:14:35.342Z,30.63
2017-09-20T05:17:03.591Z,42.40
2017-09-20T05:19:31.728Z,48.77
2017-09-20T05:21:59.876Z,37.60
2017-09-20T05:24:28.009Z,39.20
2017-09-20T05:26:56.160Z,41.03
2017-09-20T05:29:25.056Z,33.80
2017-09-20T05:31:53.981Z,39.97
2017-09-20T05:34:22.110Z,41.03
2017-09-20T05:36:51.028Z,40.67
2017-09-20T05:39:19.923Z,42.57
2017-09-20T05:41:48.064Z,33.73
2017-09-20T05:44:16.989Z,38.40
2017-09-20T05:46:45.888Z,37.93
2017-09-20T05:49:14.041Z,35.23
2017-09-20T05:51:42.176Z,46.73
2017-09-20T05:54:10.364Z,49.57
2017-09-20T05:56:39.256Z,36.17
2017-09-20T05:59:08.173Z,44.90
2017-09-20T06:01:36.306Z,43.50
2017-09-20T06:04:04.457Z,36.67
2017-09-20T06:06:32.602Z,36.17
2017-09-20T06:09:00.759Z,32.27
2017-09-20T06:11:29.680Z,35.97
2017-09-20T06:13:57.808Z,30.57
2017-09-20T06:16:26.718Z,32.43
2017-09-20T06:18:54.856Z,32.23
2017-09-20T06:21:22.986Z,36.97
2017-09-20T06:23:51.121Z,32.17
2017-09-20T06:26:19.273Z,30.17
2017-09-20T06:28:48.183Z,34.03
2017-09-20T06:31:16.329Z,32.30
2017-09-20T06:33:44.485Z,30.17
2017-09-20T06:36:12.613Z,29.83
2017-09-20T06:38:40.771Z,33.57
2017-09-20T06:41:10.687Z,33.63
2017-09-20T06:43:38.825Z,32.00
2017-09-20T06:46:06.982Z,35.50
2017-09-20T06:48:35.700Z,40.80
2017-09-20T06:51:04.634Z,36.07
2017-09-20T06:53:32.783Z,34.80
2017-09-20T06:56:01.703Z,31.90
2017-09-20T06:58:29.827Z,34.23
2017-09-20T07:00:58.725Z,31.00
2017-09-20T07:03:27.656Z,29.73
2017-09-20T07:05:55.776Z,28.60
2017-09-20T07:08:24.699Z,27.07
2017-09-20T07:10:52.828Z,25.07
2017-09-20T07:13:21.943Z,28.00
2017-09-20T07:15:50.846Z,24.07
2017-09-20T07:18:19.733Z,28.03
2017-09-20T07:20:47.887Z,25.13
2017-09-20T07:23:16.805Z,32.70
2017-09-20T07:25:46.181Z,29.53
2017-09-20T07:28:14.313Z,29.67
2017-09-20T07:30:42.456Z,32.23
2017-09-20T07:33:10.614Z,28.73
2017-09-20T07:35:39.541Z,25.80
2017-09-20T07:38:07.667Z,25.60
2017-09-20T07:40:36.584Z,27.03
2017-09-20T07:43:05.495Z,25.70
2017-09-20T07:45:33.612Z,32.00
2017-09-20T07:48:02.561Z,25.23
2017-09-20T07:50:31.528Z,26.40
2017-09-20T07:53:00.441Z,25.53
2017-09-20T07:55:28.575Z,26.03
2017-09-20T07:57:57.492Z,26.40
2017-09-20T08:00:25.633Z,25.17
2017-09-20T08:02:54.544Z,32.37
2017-09-20T08:05:22.703Z,32.77
2017-09-20T08:07:50.884Z,28.57
2017-09-20T08:10:19.033Z,25.97
2017-09-20T08:12:47.936Z,27.90
2017-09-20T08:15:16.073Z,27.53
2017-09-20T08:17:44.219Z,33.93
2017-09-20T08:20:12.356Z,26.53
2017-09-20T08:22:40.497Z,33.67
2017-09-20T08:25:08.625Z,29.50
2017-09-20T08:27:36.782Z,30.33
2017-09-20T08:30:04.914Z,29.10
2017-09-20T08:32:33.069Z,36.10
2017-09-20T08:35:01.197Z,29.77
2017-09-20T08:37:29.381Z,26.87
2017-09-20T08:39:57.520Z,31.03
2017-09-20T08:42:26.428Z,30.03
2017-09-20T08:44:54.566Z,26.80
2017-09-20T08:47:22.691Z,28.90
2017-09-20T08:49:50.845Z,24.13
2017-09-20T08:52:18.977Z,25.73
2017-09-20T08:54:47.148Z,27.13
2017-09-20T08:57:15.281Z,23.50
2017-09-20T08:59:43.440Z,24.10
2017-09-20T09:02:11.572Z,25.60
2017-09-20T09:04:39.721Z,28.77
2017-09-20T09:07:07.852Z,21.67
2017-09-20T09:09:36.769Z,25.60
2017-09-20T09:12:04.918Z,22.77
2017-09-20T09:14:33.053Z,24.73
2017-09-20T09:17:01.196Z,29.37
2017-09-20T09:19:29.345Z,26.40
2017-09-20T09:21:57.506Z,23.80
2017-09-20T09:24:25.637Z,27.33
2017-09-20T09:26:53.765Z,25.07
2017-09-20T09:29:23.264Z,24.77
2017-09-20T09:31:52.163Z,25.77
2017-09-20T09:34:21.080Z,26.13
2017-09-20T09:36:49.214Z,30.13
2017-09-20T09:39:17.340Z,28.43
2017-09-20T09:41:45.509Z,25.23
2017-09-20T09:44:13.633Z,23.67
2017-09-20T09:46:42.560Z,21.13
2017-09-20T09:49:10.828Z,25.37
2017-09-20T09:51:40.159Z,23.30
2017-09-20T09:54:08.299Z,22.10
2017-09-20T09:56:36.437Z,20.00
2017-09-20T09:59:05.358Z,23.17
2017-09-20T10:01:33.500Z,25.87
2017-09-20T10:04:01.629Z,25.50
2017-09-20T10:06:29.776Z,24.17
2017-09-20T10:08:57.909Z,23.03
2017-09-20T10:11:26.061Z,21.90
2017-09-20T10:13:54.187Z,25.73
2017-09-20T10:16:22.341Z,21.00
2017-09-20T10:18:51.249Z,25.90
2017-09-20T10:21:19.404Z,25.73
2017-09-20T10:23:48.345Z,24.60
2017-09-20T10:26:16.478Z,23.77
2017-09-20T10:28:45.400Z,22.10
2017-09-20T10:31:13.542Z,22.27
2017-09-20T10:33:42.457Z,23.17
2017-09-20T10:36:10.631Z,29.20
2017-09-20T10:38:38.783Z,24.90
2017-09-20T10:41:06.949Z,25.00
2017-09-20T10:43:35.861Z,24.50
2017-09-20T10:46:04.003Z,19.30
2017-09-20T10:48:32.920Z,23.97
2017-09-20T10:51:01.061Z,23.47
2017-09-20T10:53:29.973Z,24.27
2017-09-20T10:55:58.116Z,24.17
2017-09-20T10:58:26.268Z,22.37
2017-09-20T11:00:54.419Z,23.73
2017-09-20T11:03:23.336Z,21.10
2017-09-20T11:05:51.461Z,19.80
2017-09-20T11:08:19.596Z,23.77
2017-09-20T11:10:47.727Z,25.67
2017-09-20T11:13:15.899Z,21.50
2017-09-20T11:15:44.042Z,24.43
2017-09-20T11:18:12.943Z,24.20
2017-09-20T11:20:41.088Z,27.80
2017-09-20T11:23:10.007Z,26.30
2017-09-20T11:25:38.137Z,26.90
2017-09-20T11:28:06.289Z,23.40
2017-09-20T11:30:34.410Z,26.63
2017-09-20T11:33:02.570Z,24.30
2017-09-20T11:35:31.480Z,27.20
2017-09-20T11:37:59.616Z,30.10
2017-09-20T11:40:27.766Z,25.03
2017-09-20T11:42:55.918Z,26.43
2017-09-20T11:45:24.056Z,30.73
2017-09-20T11:47:52.204Z,26.47
2017-09-20T11:50:20.343Z,25.93
2017-09-20T11:52:48.480Z,25.43
2017-09-20T11:55:16.646Z,23.20
2017-09-20T11:57:45.532Z,27.30
2017-09-20T12:00:13.764Z,21.40
2017-09-20T12:02:41.887Z,23.80
2017-09-20T12:05:10.933Z,25.63
2017-09-20T12:07:39.104Z,24.50
2017-09-20T12:10:07.242Z,24.97
2017-09-20T12:12:36.002Z,29.67
2017-09-20T12:15:04.924Z,24.33
2017-09-20T12:17:33.077Z,23.33
2017-09-20T12:20:01.858Z,21.50
2017-09-20T12:22:30.770Z,24.83
2017-09-20T12:24:58.903Z,24.60
2017-09-20T12:27:27.820Z,20.70
2017-09-20T12:29:55.984Z,24.23
2017-09-20T12:32:24.894Z,27.50
2017-09-20T12:34:53.021Z,25.63
2017-09-20T12:37:21.164Z,22.83
2017-09-20T12:39:49.308Z,22.93
2017-09-20T12:42:17.457Z,18.30
2017-09-20T12:44:46.376Z,21.63
2017-09-20T12:47:14.521Z,17.33
2017-09-20T12:49:43.435Z,25.00
2017-09-20T12:52:11.616Z,20.90
2017-09-20T12:54:39.763Z,16.87
2017-09-20T12:57:08.663Z,20.17
2017-09-20T12:59:36.804Z,20.27
2017-09-20T13:02:04.960Z,21.90
2017-09-20T13:04:33.365Z,16.70
2017-09-20T13:07:01.941Z,16.03
2017-09-20T13:09:30.079Z,17.17
2017-09-20T13:11:58.245Z,16.80
2017-09-20T13:14:26.405Z,20.83
2017-09-20T13:16:54.573Z,17.90
2017-09-20T13:19:22.697Z,20.70
2017-09-20T13:21:50.849Z,20.37
2017-09-20T13:24:18.985Z,19.87
2017-09-20T13:26:47.148Z,22.70
2017-09-20T13:29:16.075Z,18.23
2017-09-20T13:31:44.211Z,19.40
2017-09-20T13:34:12.354Z,15.40
2017-09-20T13:36:41.251Z,14.57
2017-09-20T13:39:10.173Z,14.57
2017-09-20T13:41:38.309Z,12.80
2017-09-20T13:44:07.215Z,12.60
2017-09-20T13:46:36.138Z,16.93
2017-09-20T13:49:05.188Z,14.93
2017-09-20T13:51:34.110Z,15.40
2017-09-20T13:54:02.249Z,17.63
2017-09-20T13:56:32.015Z,13.17
2017-09-20T13:59:00.132Z,16.67
2017-09-20T14:01:29.058Z,19.90
2017-09-20T14:03:57.191Z,10.43
2017-09-20T14:06:26.849Z,10.33
2017-09-20T14:08:55.087Z,15.13
2017-09-20T14:11:23.982Z,13.47
2017-09-20T14:13:52.158Z,13.30
2017-09-20T14:16:20.277Z,12.70
2017-09-20T14:18:48.429Z,14.63
2017-09-20T14:21:16.571Z,14.63
2017-09-20T14:23:44.715Z,12.27
2017-09-20T14:26:12.853Z,14.37
2017-09-20T14:28:40.984Z,11.50
2017-09-20T14:31:09.130Z,11.27
2017-09-20T14:33:37.292Z,12.30
2017-09-20T14:36:05.449Z,12.43
2017-09-20T14:38:33.600Z,13.30
2017-09-20T14:41:01.754Z,15.33
2017-09-20T14:43:30.652Z,12.90
2017-09-20T14:45:58.813Z,15.37
2017-09-20T14:48:26.975Z,12.43
2017-09-20T14:50:55.112Z,13.47
2017-09-20T14:53:23.251Z,12.90
2017-09-20T14:55:51.414Z,19.03
2017-09-20T14:58:20.337Z,12.10
2017-09-20T15:00:48.494Z,13.70
2017-09-20T15:03:16.658Z,15.40
2017-09-20T15:05:44.795Z,18.40
2017-09-20T15:08:13.712Z,12.93
2017-09-20T15:10:41.847Z,14.90
2017-09-20T15:13:10.053Z,12.60
2017-09-20T15:15:38.966Z,12.70
2017-09-20T15:18:07.110Z,17.70
2017-09-20T15:20:35.250Z,15.00
2017-09-20T15:23:03.410Z,15.50
2017-09-20T15:25:31.553Z,15.20
2017-09-20T15:27:59.695Z,15.27
2017-09-20T15:30:28.620Z,15.50
2017-09-20T15:32:56.744Z,19.63
2017-09-20T15:35:25.671Z,14.00
2017-09-20T15:37:53.809Z,15.63
2017-09-20T15:40:22.744Z,17.20
2017-09-20T15:42:50.888Z,15.43
2017-09-20T15:45:19.040Z,15.73
2017-09-20T15:47:47.946Z,16.90
2017-09-20T15:50:16.840Z,17.93
2017-09-20T15:52:45.022Z,12.13
2017-09-20T15:55:13.180Z,15.97
2017-09-20T15:57:41.333Z,13.40
2017-09-20T16:00:09.478Z,16.17
2017-09-20T16:02:37.622Z,19.80
2017-09-20T16:05:05.809Z,18.27
2017-09-20T16:07:33.998Z,16.87
2017-09-20T16:10:02.155Z,16.87
2017-09-20T16:12:30.282Z,16.07
2017-09-20T16:14:59.193Z,14.87
2017-09-20T16:17:27.353Z,15.23
2017-09-20T16:19:56.271Z,16.73
2017-09-20T16:22:24.424Z,16.70
2017-09-20T16:24:53.316Z,13.80
2017-09-20T16:27:21.466Z,14.50
2017-09-20T16:29:50.413Z,15.73
2017-09-20T16:32:18.545Z,15.33
2017-09-20T16:34:46.684Z,14.73
2017-09-20T16:37:16.652Z,14.13
2017-09-20T16:39:45.325Z,13.73
2017-09-20T16:42:14.741Z,14.13
2017-09-20T16:44:42.903Z,16.50
2017-09-20T16:47:11.036Z,14.63
2017-09-20T16:49:39.204Z,17.20
2017-09-20T16:52:07.349Z,13.77
2017-09-20T16:54:35.501Z,15.23
2017-09-20T16:57:03.636Z,12.57
2017-09-20T16:59:31.753Z,11.37
2017-09-20T17:01:59.935Z,15.23
2017-09-20T17:04:28.070Z,12.60
2017-09-20T17:06:57.021Z,30.23
2017-09-20T17:09:25.177Z,24.60
2017-09-20T17:11:53.346Z,19.20
2017-09-20T17:14:21.480Z,13.13
2017-09-20T17:16:50.390Z,14.20
2017-09-20T17:19:20.198Z,15.07
2017-09-20T17:21:48.337Z,12.30
2017-09-20T17:24:17.254Z,14.47
2017-09-20T17:26:45.403Z,20.00
2017-09-20T17:29:14.313Z,15.13
2017-09-20T17:31:42.464Z,11.40
2017-09-20T17:34:11.418Z,14.17
2017-09-20T17:36:39.563Z,12.00
2017-09-20T17:39:07.697Z,14.53
2017-09-20T17:41:36.602Z,13.30
2017-09-20T17:44:05.551Z,15.20
2017-09-20T17:46:33.690Z,16.90
2017-09-20T17:49:01.843Z,19.63
2017-09-20T17:51:30.001Z,19.40
2017-09-20T17:54:00.905Z,21.73
2017-09-20T17:56:29.031Z,18.50
2017-09-20T17:58:57.181Z,14.30
2017-09-20T18:01:26.086Z,14.60
2017-09-20T18:03:55.005Z,18.40
2017-09-20T18:06:23.138Z,14.23
2017-09-20T18:08:52.139Z,17.30
2017-09-20T18:11:21.063Z,13.43
2017-09-20T18:13:49.223Z,12.47
2017-09-20T18:16:17.972Z,11.93
2017-09-20T18:18:46.113Z,17.93
2017-09-20T18:21:14.272Z,16.40
2017-09-20T18:23:42.433Z,15.27
2017-09-20T18:26:10.590Z,14.57
2017-09-20T18:28:39.504Z,22.23
2017-09-20T18:31:07.645Z,17.40
2017-09-20T18:33:35.788Z,21.43
2017-09-20T18:36:03.953Z,21.13
2017-09-20T18:38:32.105Z,15.27
2017-09-20T18:41:00.294Z,19.13
2017-09-20T18:43:29.321Z,26.27
2017-09-20T18:45:58.229Z,23.93
2017-09-20T18:48:26.412Z,20.33
2017-09-20T18:50:54.588Z,15.30
2017-09-20T18:53:22.717Z,18.83
2017-09-20T18:55:50.884Z,17.87
2017-09-20T18:58:19.026Z,16.90
2017-09-20T19:00:47.941Z,21.10
2017-09-20T19:03:16.088Z,27.30
2017-09-20T19:05:45.045Z,23.13
2017-09-20T19:08:13.174Z,27.90
2017-09-20T19:10:41.330Z,20.93
2017-09-20T19:13:10.258Z,26.27
2017-09-20T19:15:38.397Z,21.50
2017-09-20T19:18:07.316Z,22.80
2017-09-20T19:20:35.472Z,26.53
2017-09-20T19:23:03.638Z,22.30
2017-09-20T19:25:32.551Z,18.53
2017-09-20T19:28:00.725Z,27.53
2017-09-20T19:30:28.873Z,23.47
2017-09-20T19:32:57.025Z,21.43
2017-09-20T19:35:25.943Z,17.40
2017-09-20T19:37:54.097Z,18.20
2017-09-20T19:40:22.311Z,19.53
2017-09-20T19:42:50.464Z,21.20
2017-09-20T19:45:18.667Z,17.63
2017-09-20T19:47:46.809Z,20.73
2017-09-20T19:50:14.969Z,20.30
2017-09-20T19:52:43.903Z,19.00
2017-09-20T19:55:12.086Z,17.80
2017-09-20T19:57:40.240Z,18.30
2017-09-20T20:00:08.399Z,19.73
2017-09-20T20:02:36.550Z,17.87
2017-09-20T20:05:05.469Z,16.83
2017-09-20T20:07:33.638Z,21.10
2017-09-20T20:10:01.781Z,20.50
2017-09-20T20:12:29.950Z,19.17
2017-09-20T20:14:58.855Z,20.10
2017-09-20T20:17:26.994Z,18.90
2017-09-20T20:19:55.141Z,20.93
2017-09-20T20:22:23.285Z,19.97
2017-09-20T20:24:52.227Z,24.60
2017-09-20T20:27:20.358Z,20.20
2017-09-20T20:29:48.526Z,24.03
2017-09-20T20:32:16.674Z,19.47
2017-09-20T20:34:44.828Z,18.27
2017-09-20T20:37:13.742Z,22.03
2017-09-20T20:39:41.861Z,23.00
2017-09-20T20:42:10.026Z,23.23
2017-09-20T20:44:38.162Z,23.37
2017-09-20T20:47:06.329Z,24.63
2017-09-20T20:49:34.477Z,22.63
2017-09-20T20:52:03.412Z,26.63
2017-09-20T20:54:31.553Z,23.77
2017-09-20T20:57:00.457Z,23.07
2017-09-20T20:59:28.625Z,18.97
2017-09-20T21:01:57.538Z,26.87
2017-09-20T21:04:25.674Z,23.17
2017-09-20T21:06:54.638Z,23.17
2017-09-20T21:09:23.310Z,22.60
2017-09-20T21:11:51.470Z,20.53
2017-09-20T21:14:19.622Z,27.27
2017-09-20T21:16:47.776Z,23.23
2017-09-20T21:19:16.707Z,19.10
2017-09-20T21:21:44.833Z,26.60
2017-09-20T21:24:13.725Z,24.20
2017-09-20T21:26:41.887Z,18.20
2017-09-20T21:29:10.790Z,19.87
2017-09-20T21:31:39.685Z,21.17
2017-09-20T21:34:07.841Z,17.57
2017-09-20T21:36:35.984Z,20.37
2017-09-20T21:39:04.156Z,22.40
2017-09-20T21:41:32.302Z,21.30
2017-09-20T21:44:00.460Z,22.70
2017-09-20T21:46:28.623Z,19.57
2017-09-20T21:48:56.752Z,19.70
2017-09-20T21:51:24.885Z,19.23
2017-09-20T21:53:53.049Z,18.63
2017-09-20T21:56:21.947Z,18.93
2017-09-20T21:58:50.109Z,14.60
2017-09-20T22:01:18.237Z,14.30
2017-09-20T22:03:46.371Z,12.50
2017-09-20T22:06:14.524Z,16.07
2017-09-20T22:08:42.681Z,12.50
2017-09-20T22:11:11.570Z,15.87
2017-09-20T22:13:39.718Z,15.93
2017-09-20T22:16:19.686Z,15.87
2017-09-20T22:19:00.345Z,15.50
2017-09-20T22:21:41.024Z,14.93
2017-09-20T22:24:21.749Z,15.90
2017-09-20T22:26:49.416Z,19.13
2017-09-20T22:29:17.600Z,11.93
2017-09-20T22:31:46.489Z,7.63
2017-09-20T22:34:14.645Z,8.90
2017-09-20T22:36:42.786Z,7.00
2017-09-20T22:39:10.929Z,6.10
2017-09-20T22:41:39.826Z,7.80
2017-09-20T22:44:07.978Z,9.10
2017-09-20T22:46:36.108Z,6.50
2017-09-20T22:49:04.250Z,7.30
2017-09-20T22:51:34.552Z,7.30
2017-09-20T22:54:03.467Z,8.10
2017-09-20T22:56:31.622Z,10.60
2017-09-20T22:59:00.525Z,11.37
2017-09-20T23:01:28.652Z,9.93
2017-09-20T23:03:56.794Z,11.03
2017-09-20T23:06:24.950Z,10.20
2017-09-20T23:08:53.087Z,10.17
2017-09-20T23:11:21.979Z,10.50
2017-09-20T23:13:50.134Z,10.17
2017-09-20T23:16:18.259Z,9.40
2017-09-20T23:18:46.416Z,10.90
2017-09-20T23:21:15.305Z,12.17
2017-09-20T23:23:44.210Z,12.07
2017-09-20T23:26:12.356Z,46.93
2017-09-20T23:28:40.496Z,16.23
2017-09-20T23:31:10.159Z,18.20
2017-09-20T23:33:38.304Z,16.90
2017-09-20T23:36:07.239Z,19.00
2017-09-20T23:38:35.368Z,16.23
2017-09-20T23:41:04.318Z,19.43
2017-09-20T23:43:32.444Z,14.53
2017-09-20T23:46:00.601Z,17.77
2017-09-20T23:48:29.509Z,15.63
2017-09-20T23:50:58.409Z,8.27
2017-09-20T23:53:26.620Z,6.67
2017-09-20T23:55:54.742Z,5.43
2017-09-20T23:58:24.193Z,5.63
